createdAt,value
2023-04-15T00:01:19.879Z,16.95
2023-04-15T00:03:49.131Z,18.13
2023-04-15T00:06:17.912Z,17.17
2023-04-15T00:08:46.787Z,16.75
2023-04-15T00:11:18.505Z,16.50
2023-04-15T00:13:47.381Z,17.00
2023-04-15T00:16:16.471Z,18.55
2023-04-15T00:18:44.831Z,18.05
2023-04-15T00:21:15.307Z,16.67
2023-04-15T00:23:44.268Z,17.13
2023-04-15T00:26:13.489Z,18.23
2023-04-15T00:28:44.876Z,18.98
2023-04-15T00:31:14.396Z,17.77
2023-04-15T00:33:42.794Z,18.50
2023-04-15T00:36:12.395Z,17.23
2023-04-15T00:38:41.020Z,18.35
2023-04-15T00:41:10.749Z,17.65
2023-04-15T00:43:39.543Z,18.42
2023-04-15T00:46:11.245Z,17.63
2023-04-15T00:48:40.137Z,17.88
2023-04-15T00:51:09.834Z,17.33
2023-04-15T00:53:38.231Z,18.92
2023-04-15T00:56:08.150Z,18.90
2023-04-15T00:58:37.247Z,18.05
2023-04-15T01:01:06.507Z,18.08
2023-04-15T01:03:37.128Z,18.30
2023-04-15T01:06:06.776Z,18.20
2023-04-15T01:08:35.645Z,18.33
2023-04-15T01:11:05.132Z,17.83
2023-04-15T01:13:35.382Z,18.53
2023-04-15T01:16:04.438Z,18.63
2023-04-15T01:18:33.358Z,19.90
2023-04-15T01:21:03.923Z,18.75
2023-04-15T01:23:33.305Z,19.13
2023-04-15T01:26:04.500Z,18.30
2023-04-15T01:28:33.053Z,18.52
2023-04-15T01:31:09.376Z,19.30
2023-04-15T01:33:42.414Z,19.25
2023-04-15T01:36:11.856Z,18.50
2023-04-15T01:38:40.745Z,19.25
2023-04-15T01:41:11.313Z,19.17
2023-04-15T01:43:39.920Z,18.85
2023-04-15T01:46:11.359Z,19.65
2023-04-15T01:48:39.710Z,19.42
2023-04-15T01:51:08.507Z,18.95
2023-04-15T01:53:37.470Z,18.00
2023-04-15T01:56:07.363Z,18.10
2023-04-15T01:58:37.457Z,17.80
2023-04-15T02:01:07.147Z,17.73
2023-04-15T02:03:35.677Z,18.05
2023-04-15T02:06:06.332Z,17.02
2023-04-15T02:08:34.964Z,17.75
2023-04-15T02:11:04.240Z,17.48
2023-04-15T02:13:33.723Z,16.55
2023-04-15T02:16:05.268Z,16.70
2023-04-15T02:18:33.811Z,16.45
2023-04-15T02:21:02.830Z,15.90
2023-04-15T02:23:31.184Z,16.50
2023-04-15T02:26:00.099Z,16.92
2023-04-15T02:28:28.739Z,16.42
2023-04-15T02:30:59.413Z,16.23
2023-04-15T02:33:29.461Z,16.50
2023-04-15T02:35:58.197Z,16.23
2023-04-15T02:38:28.290Z,16.17
2023-04-15T02:40:57.749Z,15.67
2023-04-15T02:43:26.398Z,16.52
2023-04-15T02:45:55.159Z,14.90
2023-04-15T02:48:23.591Z,16.50
2023-04-15T02:50:53.923Z,16.55
2023-04-15T02:53:22.275Z,15.77
2023-04-15T02:55:51.976Z,15.90
2023-04-15T02:58:20.640Z,16.02
2023-04-15T03:05:22.218Z,16.17
2023-04-15T03:07:54.854Z,16.27
2023-04-15T03:10:23.593Z,16.45
2023-04-15T03:12:52.500Z,15.50
2023-04-15T03:15:23.917Z,15.65
2023-04-15T03:17:55.092Z,16.38
2023-04-15T03:20:23.821Z,16.10
2023-04-15T03:22:54.516Z,16.25
2023-04-15T03:25:25.207Z,15.82
2023-04-15T03:27:54.940Z,16.45
2023-04-15T03:30:23.716Z,14.95
2023-04-15T03:32:53.045Z,15.27
2023-04-15T03:35:21.913Z,16.30
2023-04-15T03:37:51.102Z,16.23
2023-04-15T03:40:23.222Z,15.77
2023-04-15T03:42:52.202Z,15.88
2023-04-15T03:45:20.661Z,16.50
2023-04-15T03:47:49.904Z,16.20
2023-04-15T03:50:18.840Z,15.93
2023-04-15T03:52:48.709Z,16.75
2023-04-15T03:55:20.280Z,15.60
2023-04-15T03:57:49.029Z,17.10
2023-04-15T04:00:17.538Z,17.75
2023-04-15T04:02:47.198Z,16.15
2023-04-15T04:05:15.876Z,17.10
2023-04-15T04:07:44.913Z,16.58
2023-04-15T04:10:13.780Z,18.45
2023-04-15T04:12:44.384Z,16.65
2023-04-15T04:15:13.370Z,17.95
2023-04-15T04:17:42.548Z,17.65
2023-04-15T04:20:11.444Z,18.20
2023-04-15T04:22:40.983Z,19.10
2023-04-15T04:25:11.317Z,18.05
2023-04-15T04:27:41.052Z,17.77
2023-04-15T04:30:12.752Z,18.77
2023-04-15T04:32:41.742Z,17.70
2023-04-15T04:35:11.607Z,18.58
2023-04-15T04:37:40.710Z,17.75
2023-04-15T04:40:10.864Z,18.40
2023-04-15T04:42:40.767Z,18.40
2023-04-15T04:45:11.386Z,18.35
2023-04-15T04:47:40.319Z,17.80
2023-04-15T04:50:10.801Z,18.23
2023-04-15T04:52:40.714Z,18.35
2023-04-15T04:55:09.787Z,17.33
2023-04-15T04:57:39.629Z,18.33
2023-04-15T05:00:12.751Z,17.67
2023-04-15T05:02:42.566Z,18.65
2023-04-15T05:05:15.311Z,17.55
2023-04-15T05:07:44.893Z,18.30
2023-04-15T05:10:14.904Z,17.67
2023-04-15T05:12:43.610Z,17.63
2023-04-15T05:15:14.377Z,18.25
2023-04-15T05:17:43.458Z,17.67
2023-04-15T05:20:12.926Z,17.73
2023-04-15T05:25:10.593Z,18.13
2023-04-15T05:27:40.302Z,17.95
2023-04-15T05:30:11.617Z,18.60
2023-04-15T05:32:44.096Z,17.48
2023-04-15T05:35:12.908Z,18.45
2023-04-15T05:37:41.599Z,17.80
2023-04-15T05:40:11.200Z,16.58
2023-04-15T05:42:40.288Z,16.95
2023-04-15T05:45:09.772Z,16.50
2023-04-15T05:47:38.889Z,17.65
2023-04-15T05:50:10.161Z,16.70
2023-04-15T05:52:38.877Z,17.75
2023-04-15T05:55:08.204Z,17.45
2023-04-15T05:57:37.904Z,17.15
2023-04-15T06:00:08.189Z,17.65
2023-04-15T06:02:39.826Z,16.52
2023-04-15T06:05:11.947Z,17.38
2023-04-15T06:07:40.659Z,17.83
2023-04-15T06:10:10.196Z,17.83
2023-04-15T06:12:39.151Z,17.52
2023-04-15T06:15:10.093Z,17.63
2023-04-15T06:17:39.275Z,18.02
2023-04-15T06:20:10.595Z,18.30
2023-04-15T06:22:40.145Z,18.02
2023-04-15T06:25:09.539Z,18.10
2023-04-15T06:27:39.080Z,17.30
2023-04-15T06:30:08.618Z,17.58
2023-04-15T06:35:06.541Z,16.60
2023-04-15T06:37:36.959Z,16.50
2023-04-15T06:40:06.072Z,16.52
2023-04-15T06:42:35.244Z,17.27
2023-04-15T06:45:03.969Z,16.30
2023-04-15T06:47:32.669Z,16.73
2023-04-15T06:50:01.302Z,17.60
2023-04-15T06:52:30.304Z,16.17
2023-04-15T06:55:01.059Z,16.63
2023-04-15T06:57:30.197Z,15.77
2023-04-15T06:59:58.604Z,15.50
2023-04-15T07:02:27.724Z,16.77
2023-04-15T07:04:57.118Z,16.33
2023-04-15T07:07:26.625Z,16.77
2023-04-15T07:09:55.329Z,16.08
2023-04-15T07:12:25.572Z,16.83
2023-04-15T07:14:54.379Z,15.65
2023-04-15T07:17:23.219Z,15.70
2023-04-15T07:19:51.671Z,15.25
2023-04-15T07:22:20.771Z,15.97
2023-04-15T07:24:49.445Z,16.10
2023-04-15T07:27:18.587Z,14.90
2023-04-15T07:29:49.342Z,14.02
2023-04-15T07:32:17.987Z,14.57
2023-04-15T07:34:46.546Z,15.45
2023-04-15T07:37:16.882Z,14.70
2023-04-15T07:39:45.340Z,15.45
2023-04-15T07:42:14.245Z,15.07
2023-04-15T07:44:42.888Z,15.25
2023-04-15T07:47:13.646Z,15.75
2023-04-15T07:49:43.464Z,14.68
2023-04-15T07:52:12.821Z,15.20
2023-04-15T07:54:41.187Z,14.38
2023-04-15T07:57:09.931Z,13.75
2023-04-15T07:59:38.570Z,14.60
2023-04-15T08:02:08.674Z,14.05
2023-04-15T08:04:39.630Z,13.98
2023-04-15T08:07:09.202Z,14.40
2023-04-15T08:09:38.055Z,14.27
2023-04-15T08:12:09.881Z,13.43
2023-04-15T08:14:38.965Z,13.82
2023-04-15T08:17:08.009Z,14.07
2023-04-15T08:19:37.723Z,14.23
2023-04-15T08:22:10.490Z,13.35
2023-04-15T08:24:46.755Z,14.23
2023-04-15T08:27:15.538Z,14.23
2023-04-15T08:29:45.517Z,14.27
2023-04-15T08:32:15.038Z,13.35
2023-04-15T08:34:43.568Z,13.48
2023-04-15T08:37:14.366Z,13.67
2023-04-15T08:39:42.769Z,13.15
2023-04-15T08:42:18.019Z,13.27
2023-04-15T08:44:48.011Z,13.27
2023-04-15T08:47:21.845Z,14.10
2023-04-15T08:49:54.149Z,12.52
2023-04-15T08:52:26.610Z,12.77
2023-04-15T08:54:59.882Z,13.63
2023-04-15T08:57:29.993Z,12.70
2023-04-15T08:59:58.824Z,13.00
2023-04-15T09:02:28.618Z,12.73
2023-04-15T09:04:58.937Z,13.25
2023-04-15T09:07:29.254Z,13.50
2023-04-15T09:09:57.900Z,13.52
2023-04-15T09:12:26.878Z,13.02
2023-04-15T09:14:55.713Z,12.48
2023-04-15T09:17:26.779Z,12.95
2023-04-15T09:20:10.516Z,13.43
2023-04-15T09:22:41.682Z,13.10
2023-04-15T09:25:33.435Z,13.10
2023-04-15T09:28:03.968Z,13.20
2023-04-15T09:30:32.314Z,12.70
2023-04-15T09:33:11.067Z,13.65
2023-04-15T09:35:39.796Z,12.75
2023-04-15T09:38:11.376Z,12.20
2023-04-15T09:40:41.486Z,12.25
2023-04-15T09:43:13.756Z,11.95
2023-04-15T09:45:49.356Z,13.23
2023-04-15T09:48:20.990Z,15.23
2023-04-15T09:50:50.670Z,16.40
2023-04-15T09:53:22.440Z,16.58
2023-04-15T09:55:55.684Z,16.50
2023-04-15T09:58:26.611Z,16.33
2023-04-15T10:00:57.582Z,14.63
2023-04-15T10:03:29.218Z,13.13
2023-04-15T10:05:59.133Z,13.27
2023-04-15T10:08:31.658Z,12.93
2023-04-15T10:11:00.196Z,13.05
2023-04-15T10:13:33.062Z,14.25
2023-04-15T10:16:06.736Z,12.32
2023-04-15T10:18:37.575Z,12.23
2023-04-15T10:21:07.104Z,13.45
2023-04-15T10:23:38.184Z,12.35
2023-04-15T10:26:07.213Z,12.13
2023-04-15T10:28:36.412Z,12.68
2023-04-15T10:31:07.627Z,13.30
2023-04-15T10:33:36.949Z,12.10
2023-04-15T10:36:06.620Z,11.85
2023-04-15T10:38:43.551Z,12.25
2023-04-15T10:41:21.071Z,12.65
2023-04-15T10:43:53.133Z,11.65
2023-04-15T10:46:24.205Z,12.15
2023-04-15T10:48:54.248Z,12.48
2023-04-15T10:54:01.712Z,11.27
2023-04-15T10:56:31.559Z,10.65
2023-04-15T10:59:02.295Z,10.82
2023-04-15T11:01:53.142Z,11.23
2023-04-15T11:04:55.460Z,11.25
2023-04-15T11:07:41.348Z,11.20
2023-04-15T11:10:55.346Z,10.73
2023-04-15T11:13:30.706Z,10.88
2023-04-15T11:16:01.996Z,10.77
2023-04-15T11:18:33.149Z,11.38
2023-04-15T11:21:04.543Z,11.93
2023-04-15T11:23:38.860Z,11.55
2023-04-15T11:26:10.003Z,11.57
2023-04-15T11:28:42.290Z,11.52
2023-04-15T11:31:13.437Z,11.98
2023-04-15T11:33:49.004Z,13.02
2023-04-15T11:36:18.128Z,12.38
2023-04-15T11:38:49.110Z,12.45
2023-04-15T11:41:22.464Z,11.82
2023-04-15T11:43:53.085Z,11.32
2023-04-15T11:46:22.941Z,11.23
2023-04-15T11:48:51.576Z,11.02
2023-04-15T11:51:22.107Z,11.00
2023-04-15T11:53:52.154Z,10.13
2023-04-15T11:56:22.488Z,9.98
2023-04-15T11:58:57.137Z,10.48
2023-04-15T12:01:32.984Z,10.75
2023-04-15T12:04:02.449Z,11.70
2023-04-15T12:06:35.155Z,10.27
2023-04-15T12:09:10.032Z,10.88
2023-04-15T12:11:44.796Z,11.30
2023-04-15T12:14:22.684Z,10.52
2023-04-15T12:16:54.389Z,10.98
2023-04-15T12:19:27.732Z,10.63
2023-04-15T12:22:01.562Z,10.40
2023-04-15T12:24:33.069Z,10.52
2023-04-15T12:27:05.195Z,11.63
2023-04-15T12:29:36.715Z,10.52
2023-04-15T12:32:10.537Z,10.73
2023-04-15T12:34:40.637Z,11.57
2023-04-15T12:37:11.031Z,11.52
2023-04-15T12:39:42.019Z,10.23
2023-04-15T12:42:11.828Z,11.00
2023-04-15T12:44:41.872Z,11.18
2023-04-15T12:47:11.923Z,11.13
2023-04-15T12:52:10.241Z,11.02
2023-04-15T12:54:38.860Z,12.38
2023-04-15T12:57:07.969Z,11.55
2023-04-15T12:59:36.908Z,12.00
2023-04-15T13:02:07.680Z,11.82
2023-04-15T13:04:36.234Z,11.15
2023-04-15T13:07:04.995Z,11.13
2023-04-15T13:09:33.446Z,12.00
2023-04-15T13:12:04.587Z,10.93
2023-04-15T13:14:33.031Z,10.63
2023-04-15T13:17:02.925Z,10.50
2023-04-15T13:19:33.250Z,10.68
2023-04-15T13:22:03.983Z,10.57
2023-04-15T13:24:32.889Z,10.63
2023-04-15T13:27:01.668Z,10.75
2023-04-15T13:29:30.468Z,11.13
2023-04-15T13:31:59.186Z,10.75
2023-04-15T13:34:27.615Z,10.70
2023-04-15T13:36:58.392Z,10.50
2023-04-15T13:39:26.741Z,11.75
2023-04-15T13:41:56.124Z,11.00
2023-04-15T13:44:24.603Z,10.35
2023-04-15T13:46:55.043Z,11.00
2023-04-15T13:49:23.477Z,11.27
2023-04-15T13:51:52.707Z,10.93
2023-04-15T13:54:22.748Z,11.07
2023-04-15T13:56:51.845Z,11.02
2023-04-15T13:59:20.474Z,10.90
2023-04-15T14:01:49.676Z,11.45
2023-04-15T14:04:18.116Z,11.20
2023-04-15T14:06:47.509Z,11.37
2023-04-15T14:09:16.257Z,11.50
2023-04-15T14:11:46.661Z,11.52
2023-04-15T14:14:16.315Z,11.52
2023-04-15T14:16:45.347Z,11.25
2023-04-15T14:19:14.026Z,11.05
2023-04-15T14:21:42.893Z,11.63
2023-04-15T14:24:12.592Z,11.98
2023-04-15T14:26:41.459Z,11.93
2023-04-15T14:29:11.886Z,12.88
2023-04-15T14:31:41.196Z,13.20
2023-04-15T14:34:11.596Z,11.98
2023-04-15T14:36:41.918Z,11.45
2023-04-15T14:39:10.604Z,13.60
2023-04-15T14:41:39.289Z,12.75
2023-04-15T14:44:09.741Z,12.10
2023-04-15T14:46:41.229Z,12.20
2023-04-15T14:49:10.738Z,12.23
2023-04-15T14:51:41.649Z,12.18
2023-04-15T14:54:10.715Z,13.75
2023-04-15T14:56:39.672Z,12.98
2023-04-15T14:59:08.293Z,12.60
2023-04-15T15:01:37.125Z,13.10
2023-04-15T15:04:07.028Z,13.45
2023-04-15T15:06:37.352Z,13.13
2023-04-15T15:09:06.212Z,13.18
2023-04-15T15:11:35.224Z,12.02
2023-04-15T15:14:03.500Z,12.13
2023-04-15T15:16:32.475Z,12.98
2023-04-15T15:19:01.166Z,12.63
2023-04-15T15:21:31.987Z,12.00
2023-04-15T15:24:01.629Z,11.85
2023-04-15T15:26:30.579Z,12.38
2023-04-15T15:28:58.952Z,11.60
2023-04-15T15:31:27.994Z,12.50
2023-04-15T15:33:56.796Z,11.87
2023-04-15T15:36:27.356Z,11.23
2023-04-15T15:38:57.308Z,12.45
2023-04-15T15:41:27.009Z,12.70
2023-04-15T15:43:56.086Z,12.02
2023-04-15T15:46:25.175Z,12.57
2023-04-15T15:48:53.851Z,12.10
2023-04-15T15:51:22.740Z,12.88
2023-04-15T15:53:51.657Z,13.60
2023-04-15T15:56:21.745Z,14.02
2023-04-15T15:58:50.433Z,14.50
2023-04-15T16:01:18.901Z,13.20
2023-04-15T16:03:47.911Z,12.25
2023-04-15T16:06:16.813Z,11.07
2023-04-15T16:08:45.660Z,11.10
2023-04-15T16:11:14.068Z,11.10
2023-04-15T16:13:44.072Z,10.15
2023-04-15T16:18:41.995Z,10.30
2023-04-15T16:21:10.642Z,10.07
2023-04-15T16:26:08.642Z,10.10
2023-04-15T16:28:37.394Z,9.40
2023-04-15T16:31:07.648Z,9.75
2023-04-15T16:33:36.484Z,9.77
2023-04-15T16:36:05.525Z,9.35
2023-04-15T16:38:34.615Z,9.63
2023-04-15T16:41:03.622Z,9.75
2023-04-15T16:43:32.390Z,9.85
2023-04-15T16:46:00.749Z,9.63
2023-04-15T16:48:31.259Z,10.90
2023-04-15T16:50:59.893Z,10.70
2023-04-15T16:53:28.664Z,9.75
2023-04-15T16:55:58.058Z,10.23
2023-04-15T16:58:27.872Z,9.90
2023-04-15T17:00:56.740Z,9.77
2023-04-15T17:03:26.999Z,10.00
2023-04-15T17:05:57.347Z,10.18
2023-04-15T17:08:26.083Z,10.05
2023-04-15T17:10:55.316Z,9.73
2023-04-15T17:13:24.378Z,9.30
2023-04-15T17:15:55.133Z,8.85
2023-04-15T17:18:24.929Z,8.52
2023-04-15T17:20:53.307Z,8.27
2023-04-15T17:23:23.881Z,9.52
2023-04-15T17:25:52.754Z,8.73
2023-04-15T17:28:21.859Z,7.82
2023-04-15T17:30:50.897Z,7.50
2023-04-15T17:33:56.175Z,8.05
2023-04-15T17:36:08.915Z,7.70
2023-04-15T17:38:41.824Z,7.60
2023-04-15T17:41:10.284Z,8.05
2023-04-15T17:43:39.290Z,7.47
2023-04-15T17:46:08.395Z,7.88
2023-04-15T17:48:37.960Z,7.63
2023-04-15T17:51:06.442Z,8.63
2023-04-15T17:53:35.195Z,8.57
2023-04-15T17:56:05.296Z,7.82
2023-04-15T17:58:34.343Z,7.30
2023-04-15T18:01:03.124Z,6.73
2023-04-15T18:03:31.861Z,6.45
2023-04-15T18:06:01.397Z,6.95
2023-04-15T18:10:59.250Z,5.75
2023-04-15T18:13:29.674Z,6.32
2023-04-15T18:15:58.161Z,6.10
2023-04-15T18:18:27.176Z,5.75
2023-04-15T18:20:55.600Z,5.70
2023-04-15T18:23:24.316Z,5.45
2023-04-15T18:25:52.618Z,5.40
2023-04-15T18:28:23.691Z,5.45
2023-04-15T18:33:25.197Z,5.25
2023-04-15T18:35:53.678Z,5.43
2023-04-15T18:38:22.501Z,5.47
2023-04-15T18:40:50.916Z,5.60
2023-04-15T18:43:20.406Z,5.72
2023-04-15T18:45:49.146Z,5.55
2023-04-15T18:48:19.430Z,6.32
2023-04-15T18:50:48.188Z,7.40
2023-04-15T18:53:17.290Z,7.15
2023-04-15T18:55:45.718Z,8.05
2023-04-15T18:58:14.457Z,7.85
2023-04-15T19:00:43.983Z,8.18
2023-04-15T19:03:12.853Z,8.52
2023-04-15T19:05:43.013Z,8.88
2023-04-15T19:08:12.529Z,9.20
2023-04-15T19:10:41.274Z,6.55
2023-04-15T19:13:10.026Z,5.50
2023-04-15T19:15:38.380Z,5.50
2023-04-15T19:18:10.655Z,5.25
2023-04-15T19:20:40.323Z,5.55
2023-04-15T19:23:12.740Z,5.38
2023-04-15T19:25:41.554Z,6.05
2023-04-15T19:28:10.586Z,6.03
2023-04-15T19:30:39.139Z,6.43
2023-04-15T19:33:07.971Z,6.82
2023-04-15T19:35:36.466Z,7.13
2023-04-15T19:38:06.918Z,6.60
2023-04-15T19:40:36.752Z,6.95
2023-04-15T19:43:05.861Z,6.93
2023-04-15T19:45:35.685Z,7.35
2023-04-15T19:48:06.248Z,7.63
2023-04-15T19:50:34.906Z,7.00
2023-04-15T19:53:04.121Z,7.32
2023-04-15T19:55:32.706Z,7.43
2023-04-15T19:58:03.208Z,8.40
2023-04-15T20:00:32.579Z,8.27
2023-04-15T20:05:30.122Z,7.90
2023-04-15T20:07:59.892Z,9.00
2023-04-15T20:10:28.391Z,8.75
2023-04-15T20:12:57.161Z,8.63
2023-04-15T20:15:28.153Z,8.55
2023-04-15T20:17:57.153Z,8.60
2023-04-15T20:20:25.636Z,8.77
2023-04-15T20:22:54.608Z,8.77
2023-04-15T20:25:22.986Z,9.48
2023-04-15T20:27:51.718Z,8.82
2023-04-15T20:30:20.282Z,10.07
2023-04-15T20:32:50.758Z,10.60
2023-04-15T20:35:19.938Z,12.18
2023-04-15T20:37:50.816Z,12.73
2023-04-15T20:40:19.337Z,13.77
2023-04-15T20:42:48.048Z,14.73
2023-04-15T20:45:16.650Z,12.20
2023-04-15T20:47:45.485Z,12.65
2023-04-15T20:50:16.011Z,12.27
2023-04-15T20:52:45.510Z,10.38
2023-04-15T20:55:14.135Z,9.50
2023-04-15T20:57:43.162Z,8.80
2023-04-15T21:00:12.387Z,8.85
2023-04-15T21:02:41.432Z,9.45
2023-04-15T21:05:10.290Z,9.57
2023-04-15T21:07:41.396Z,9.70
2023-04-15T21:10:10.756Z,8.38
2023-04-15T21:12:41.180Z,7.55
2023-04-15T21:15:10.922Z,8.75
2023-04-15T21:17:40.113Z,7.95
2023-04-15T21:20:09.978Z,8.32
2023-04-15T21:22:40.614Z,8.27
2023-04-15T21:25:10.161Z,8.45
2023-04-15T21:27:39.554Z,7.90
2023-04-15T21:30:09.117Z,8.18
2023-04-15T21:35:07.840Z,7.95
2023-04-15T21:37:37.632Z,7.47
2023-04-15T21:40:09.487Z,7.95
2023-04-15T21:42:38.322Z,7.65
2023-04-15T21:45:08.081Z,8.25
2023-04-15T21:48:04.585Z,8.20
2023-04-15T21:50:25.625Z,8.63
2023-04-15T21:52:54.448Z,9.68
2023-04-15T21:55:24.559Z,10.05
2023-04-15T21:57:53.276Z,10.00
2023-04-15T22:00:23.263Z,10.32
2023-04-15T22:02:53.110Z,10.15
2023-04-15T22:05:22.097Z,11.00
2023-04-15T22:07:50.830Z,11.07
2023-04-15T22:10:19.687Z,9.82
2023-04-15T22:12:50.105Z,10.20
2023-04-15T22:15:18.514Z,10.13
2023-04-15T22:17:47.582Z,9.82
2023-04-15T22:20:16.094Z,8.73
2023-04-15T22:22:45.422Z,8.98
2023-04-15T22:25:13.989Z,8.48
2023-04-15T22:27:42.961Z,9.33
2023-04-15T22:30:14.359Z,8.13
2023-04-15T22:32:43.928Z,7.63
2023-04-15T22:35:12.501Z,7.30
2023-04-15T22:37:41.279Z,7.63
2023-04-15T22:40:11.105Z,8.27
2023-04-15T22:42:40.032Z,8.00
2023-04-15T22:45:09.626Z,8.45
2023-04-15T22:50:09.423Z,9.27
2023-04-15T22:52:38.363Z,9.60
2023-04-15T22:55:07.930Z,9.40
2023-04-15T22:57:36.756Z,10.20
2023-04-15T23:00:05.908Z,9.63
2023-04-15T23:02:34.995Z,9.10
2023-04-15T23:05:12.549Z,9.93
2023-04-15T23:07:42.297Z,9.05
2023-04-15T23:10:11.331Z,9.13
2023-04-15T23:12:40.331Z,8.65
2023-04-15T23:15:10.210Z,8.60
2023-04-15T23:17:38.981Z,8.25
2023-04-15T23:20:09.838Z,7.80
2023-04-15T23:22:38.740Z,8.23
2023-04-15T23:25:07.608Z,7.68
2023-04-15T23:27:37.232Z,7.40
2023-04-15T23:30:06.546Z,8.15
2023-04-15T23:32:35.715Z,7.50
2023-04-15T23:35:04.174Z,7.80
2023-04-15T23:37:34.597Z,7.22
2023-04-15T23:40:02.976Z,7.95
2023-04-15T23:42:31.978Z,8.00
2023-04-15T23:45:00.610Z,7.90
2023-04-15T23:47:29.625Z,7.53
2023-04-15T23:49:58.054Z,7.47
2023-04-15T23:52:28.338Z,8.23
2023-04-15T23:57:27.394Z,6.85
2023-04-15T23:59:56.355Z,7.13
